sensor_id;sensor_type;location;lat;lon;timestamp;temperature;humidity
18880;DHT22;9572;52.378;13.404;2023-04-06T00:00:45;3.20;99.90
18880;DHT22;9572;52.378;13.404;2023-04-06T00:03:12;3.10;99.90
18880;DHT22;9572;52.378;13.404;2023-04-06T00:05:39;3.10;99.90
18880;DHT22;9572;52.378;13.404;2023-04-06T00:08:06;3.00;99.90
18880;DHT22;9572;52.378;13.404;2023-04-06T00:10:34;3.00;99.90
18880;DHT22;9572;52.378;13.404;2023-04-06T00:13:01;2.90;99.90
18880;DHT22;9572;52.378;13.404;2023-04-06T00:15:28;2.90;99.90
18880;DHT22;9572;52.378;13.404;2023-04-06T00:17:55;2.90;99.90
18880;DHT22;9572;52.378;13.404;2023-04-06T00:20:23;2.80;99.90
18880;DHT22;9572;52.378;13.404;2023-04-06T00:22:50;2.80;99.90
18880;DHT22;9572;52.378;13.404;2023-04-06T00:25:17;2.70;99.90
18880;DHT22;9572;52.378;13.404;2023-04-06T00:27:45;2.70;99.90
18880;DHT22;9572;52.378;13.404;2023-04-06T00:30:13;2.70;99.90
18880;DHT22;9572;52.378;13.404;2023-04-06T00:32:40;2.60;99.90
18880;DHT22;9572;52.378;13.404;2023-04-06T00:35:07;2.60;99.90
18880;DHT22;9572;52.378;13.404;2023-04-06T00:37:34;2.50;99.90
18880;DHT22;9572;52.378;13.404;2023-04-06T00:40:01;2.50;99.90
18880;DHT22;9572;52.378;13.404;2023-04-06T00:42:28;2.50;99.90
18880;DHT22;9572;52.378;13.404;2023-04-06T00:44:58;2.40;99.90
18880;DHT22;9572;52.378;13.404;2023-04-06T00:47:26;2.30;99.90
18880;DHT22;9572;52.378;13.404;2023-04-06T00:49:54;2.30;99.90
18880;DHT22;9572;52.378;13.404;2023-04-06T00:52:21;2.20;99.90
18880;DHT22;9572;52.378;13.404;2023-04-06T00:54:48;2.20;99.90
18880;DHT22;9572;52.378;13.404;2023-04-06T00:57:16;2.20;99.90
18880;DHT22;9572;52.378;13.404;2023-04-06T00:59:43;2.10;99.90
18880;DHT22;9572;52.378;13.404;2023-04-06T01:02:12;2.10;99.90
18880;DHT22;9572;52.378;13.404;2023-04-06T01:04:39;2.10;99.90
18880;DHT22;9572;52.378;13.404;2023-04-06T01:07:06;2.10;99.90
18880;DHT22;9572;52.378;13.404;2023-04-06T01:09:33;2.00;99.90
18880;DHT22;9572;52.378;13.404;2023-04-06T01:12:00;2.00;99.90
18880;DHT22;9572;52.378;13.404;2023-04-06T01:14:28;1.90;99.90
18880;DHT22;9572;52.378;13.404;2023-04-06T01:16:58;1.90;99.90
18880;DHT22;9572;52.378;13.404;2023-04-06T01:19:27;1.90;99.90
18880;DHT22;9572;52.378;13.404;2023-04-06T01:21:54;1.90;99.90
18880;DHT22;9572;52.378;13.404;2023-04-06T01:24:22;1.80;99.90
18880;DHT22;9572;52.378;13.404;2023-04-06T01:26:49;1.90;99.90
18880;DHT22;9572;52.378;13.404;2023-04-06T01:29:16;1.80;99.90
18880;DHT22;9572;52.378;13.404;2023-04-06T01:31:43;1.80;99.90
18880;DHT22;9572;52.378;13.404;2023-04-06T01:34:10;1.80;99.90
18880;DHT22;9572;52.378;13.404;2023-04-06T01:36:37;1.80;99.90
18880;DHT22;9572;52.378;13.404;2023-04-06T01:39:05;1.80;99.90
18880;DHT22;9572;52.378;13.404;2023-04-06T01:41:33;1.80;99.90
18880;DHT22;9572;52.378;13.404;2023-04-06T01:44:00;1.80;99.90
18880;DHT22;9572;52.378;13.404;2023-04-06T01:46:27;1.80;99.90
18880;DHT22;9572;52.378;13.404;2023-04-06T01:48:54;1.80;99.90
18880;DHT22;9572;52.378;13.404;2023-04-06T01:51:21;1.80;99.90
18880;DHT22;9572;52.378;13.404;2023-04-06T01:53:50;1.70;99.90
18880;DHT22;9572;52.378;13.404;2023-04-06T01:56:17;1.70;99.90
18880;DHT22;9572;52.378;13.404;2023-04-06T01:58:45;1.70;99.90
18880;DHT22;9572;52.378;13.404;2023-04-06T02:01:12;1.70;99.90
18880;DHT22;9572;52.378;13.404;2023-04-06T02:03:39;1.70;99.90
18880;DHT22;9572;52.378;13.404;2023-04-06T02:06:06;1.60;99.90
18880;DHT22;9572;52.378;13.404;2023-04-06T02:08:33;1.60;99.90
18880;DHT22;9572;52.378;13.404;2023-04-06T02:11:00;1.60;99.90
18880;DHT22;9572;52.378;13.404;2023-04-06T02:13:28;1.50;99.90
18880;DHT22;9572;52.378;13.404;2023-04-06T02:15:56;1.50;99.90
18880;DHT22;9572;52.378;13.404;2023-04-06T02:18:24;1.40;99.90
18880;DHT22;9572;52.378;13.404;2023-04-06T02:20:51;1.40;99.90
18880;DHT22;9572;52.378;13.404;2023-04-06T02:23:18;1.30;99.90
18880;DHT22;9572;52.378;13.404;2023-04-06T02:25:45;1.30;99.90
18880;DHT22;9572;52.378;13.404;2023-04-06T02:28:12;1.30;99.90
18880;DHT22;9572;52.378;13.404;2023-04-06T02:30:39;1.30;99.90
18880;DHT22;9572;52.378;13.404;2023-04-06T02:33:07;1.20;99.90
18880;DHT22;9572;52.378;13.404;2023-04-06T02:35:34;1.20;99.90
18880;DHT22;9572;52.378;13.404;2023-04-06T02:38:01;1.20;99.90
18880;DHT22;9572;52.378;13.404;2023-04-06T02:40:28;1.20;99.90
18880;DHT22;9572;52.378;13.404;2023-04-06T02:42:55;1.20;99.90
18880;DHT22;9572;52.378;13.404;2023-04-06T02:45:22;1.10;99.90
18880;DHT22;9572;52.378;13.404;2023-04-06T02:47:50;1.10;99.90
18880;DHT22;9572;52.378;13.404;2023-04-06T02:50:18;1.10;99.90
18880;DHT22;9572;52.378;13.404;2023-04-06T02:52:45;1.00;99.90
18880;DHT22;9572;52.378;13.404;2023-04-06T02:55:12;1.00;99.90
18880;DHT22;9572;52.378;13.404;2023-04-06T02:57:40;0.90;99.90
18880;DHT22;9572;52.378;13.404;2023-04-06T03:00:08;0.80;99.90
18880;DHT22;9572;52.378;13.404;2023-04-06T03:02:35;0.90;99.90
18880;DHT22;9572;52.378;13.404;2023-04-06T03:05:02;0.90;99.90
18880;DHT22;9572;52.378;13.404;2023-04-06T03:07:31;0.80;99.90
18880;DHT22;9572;52.378;13.404;2023-04-06T03:09:58;0.80;99.90
18880;DHT22;9572;52.378;13.404;2023-04-06T03:12:25;0.70;99.90
18880;DHT22;9572;52.378;13.404;2023-04-06T03:14:52;0.70;99.90
18880;DHT22;9572;52.378;13.404;2023-04-06T03:17:19;0.60;99.90
18880;DHT22;9572;52.378;13.404;2023-04-06T03:19:46;0.60;99.90
18880;DHT22;9572;52.378;13.404;2023-04-06T03:22:13;0.60;99.90
18880;DHT22;9572;52.378;13.404;2023-04-06T03:24:42;0.60;99.90
18880;DHT22;9572;52.378;13.404;2023-04-06T03:27:09;0.60;99.90
18880;DHT22;9572;52.378;13.404;2023-04-06T03:29:36;0.60;99.90
18880;DHT22;9572;52.378;13.404;2023-04-06T03:32:03;0.60;99.90
18880;DHT22;9572;52.378;13.404;2023-04-06T03:34:30;0.60;99.90
18880;DHT22;9572;52.378;13.404;2023-04-06T03:36:57;0.50;99.90
18880;DHT22;9572;52.378;13.404;2023-04-06T03:39:24;0.50;99.90
18880;DHT22;9572;52.378;13.404;2023-04-06T03:41:53;0.50;99.90
18880;DHT22;9572;52.378;13.404;2023-04-06T03:44:20;0.50;99.90
18880;DHT22;9572;52.378;13.404;2023-04-06T03:46:47;0.50;99.90
18880;DHT22;9572;52.378;13.404;2023-04-06T03:49:14;0.50;99.90
18880;DHT22;9572;52.378;13.404;2023-04-06T03:51:41;0.50;99.90
18880;DHT22;9572;52.378;13.404;2023-04-06T03:54:08;0.50;99.90
18880;DHT22;9572;52.378;13.404;2023-04-06T03:56:35;0.50;99.90
18880;DHT22;9572;52.378;13.404;2023-04-06T03:59:04;0.40;99.90
18880;DHT22;9572;52.378;13.404;2023-04-06T04:01:31;0.40;99.90
18880;DHT22;9572;52.378;13.404;2023-04-06T04:03:58;0.40;99.90
18880;DHT22;9572;52.378;13.404;2023-04-06T04:06:25;0.40;99.90
18880;DHT22;9572;52.378;13.404;2023-04-06T04:08:52;0.40;99.90
18880;DHT22;9572;52.378;13.404;2023-04-06T04:11:19;0.40;99.90
18880;DHT22;9572;52.378;13.404;2023-04-06T04:13:47;0.30;99.90
18880;DHT22;9572;52.378;13.404;2023-04-06T04:16:15;0.30;99.90
18880;DHT22;9572;52.378;13.404;2023-04-06T04:18:42;0.40;99.90
18880;DHT22;9572;52.378;13.404;2023-04-06T04:21:11;0.40;99.90
18880;DHT22;9572;52.378;13.404;2023-04-06T04:23:38;0.30;99.90
18880;DHT22;9572;52.378;13.404;2023-04-06T04:26:05;0.30;99.90
18880;DHT22;9572;52.378;13.404;2023-04-06T04:28:32;0.30;99.90
18880;DHT22;9572;52.378;13.404;2023-04-06T04:30:59;0.20;99.90
18880;DHT22;9572;52.378;13.404;2023-04-06T04:33:27;0.20;99.90
18880;DHT22;9572;52.378;13.404;2023-04-06T04:35:55;0.20;99.90
18880;DHT22;9572;52.378;13.404;2023-04-06T04:38:22;0.20;99.90
18880;DHT22;9572;52.378;13.404;2023-04-06T04:40:49;0.30;99.90
18880;DHT22;9572;52.378;13.404;2023-04-06T04:43:16;0.30;99.90
18880;DHT22;9572;52.378;13.404;2023-04-06T04:45:43;0.30;99.90
18880;DHT22;9572;52.378;13.404;2023-04-06T04:48:10;0.30;99.90
18880;DHT22;9572;52.378;13.404;2023-04-06T04:50:38;0.30;99.90
18880;DHT22;9572;52.378;13.404;2023-04-06T04:53:06;0.30;99.90
18880;DHT22;9572;52.378;13.404;2023-04-06T04:55:33;0.30;99.90
18880;DHT22;9572;52.378;13.404;2023-04-06T04:58:00;0.30;99.90
18880;DHT22;9572;52.378;13.404;2023-04-06T05:00:28;0.30;99.90
18880;DHT22;9572;52.378;13.404;2023-04-06T05:02:55;0.30;99.90
18880;DHT22;9572;52.378;13.404;2023-04-06T05:05:22;0.30;99.90
18880;DHT22;9572;52.378;13.404;2023-04-06T05:07:50;0.30;99.90
18880;DHT22;9572;52.378;13.404;2023-04-06T05:10:18;0.30;99.90
18880;DHT22;9572;52.378;13.404;2023-04-06T05:12:45;0.30;99.90
18880;DHT22;9572;52.378;13.404;2023-04-06T05:15:12;0.40;99.90
18880;DHT22;9572;52.378;13.404;2023-04-06T05:17:39;0.40;99.90
18880;DHT22;9572;52.378;13.404;2023-04-06T05:20:07;0.50;99.90
18880;DHT22;9572;52.378;13.404;2023-04-06T05:22:34;0.60;99.90
18880;DHT22;9572;52.378;13.404;2023-04-06T05:25:03;0.70;99.90
18880;DHT22;9572;52.378;13.404;2023-04-06T05:27:30;0.80;99.90
18880;DHT22;9572;52.378;13.404;2023-04-06T05:29:58;0.90;99.90
18880;DHT22;9572;52.378;13.404;2023-04-06T05:32:25;1.00;99.90
18880;DHT22;9572;52.378;13.404;2023-04-06T05:34:52;1.10;99.90
18880;DHT22;9572;52.378;13.404;2023-04-06T05:37:19;1.20;99.90
18880;DHT22;9572;52.378;13.404;2023-04-06T05:39:46;1.40;99.90
18880;DHT22;9572;52.378;13.404;2023-04-06T05:42:15;1.50;99.90
18880;DHT22;9572;52.378;13.404;2023-04-06T05:44:42;1.70;99.90
18880;DHT22;9572;52.378;13.404;2023-04-06T05:47:09;1.90;99.90
18880;DHT22;9572;52.378;13.404;2023-04-06T05:49:36;2.10;99.90
18880;DHT22;9572;52.378;13.404;2023-04-06T05:52:03;2.30;99.90
18880;DHT22;9572;52.378;13.404;2023-04-06T05:54:30;2.40;99.90
18880;DHT22;9572;52.378;13.404;2023-04-06T05:56:57;2.60;99.90
18880;DHT22;9572;52.378;13.404;2023-04-06T05:59:25;2.80;99.90
18880;DHT22;9572;52.378;13.404;2023-04-06T06:01:52;3.10;99.90
18880;DHT22;9572;52.378;13.404;2023-04-06T06:04:19;3.30;99.90
18880;DHT22;9572;52.378;13.404;2023-04-06T06:06:46;3.60;99.90
18880;DHT22;9572;52.378;13.404;2023-04-06T06:09:14;3.80;99.90
18880;DHT22;9572;52.378;13.404;2023-04-06T06:11:41;4.00;99.90
18880;DHT22;9572;52.378;13.404;2023-04-06T06:14:08;4.20;99.90
18880;DHT22;9572;52.378;13.404;2023-04-06T06:16:36;4.40;99.90
18880;DHT22;9572;52.378;13.404;2023-04-06T06:19:03;4.50;99.90
18880;DHT22;9572;52.378;13.404;2023-04-06T06:21:30;4.80;99.90
18880;DHT22;9572;52.378;13.404;2023-04-06T06:23:57;4.90;99.90
18880;DHT22;9572;52.378;13.404;2023-04-06T06:26:24;5.10;99.90
18880;DHT22;9572;52.378;13.404;2023-04-06T06:28:52;5.30;99.90
18880;DHT22;9572;52.378;13.404;2023-04-06T06:31:19;5.50;99.90
18880;DHT22;9572;52.378;13.404;2023-04-06T06:33:49;5.60;99.90
18880;DHT22;9572;52.378;13.404;2023-04-06T06:36:16;5.70;99.90
18880;DHT22;9572;52.378;13.404;2023-04-06T06:38:44;5.90;99.90
18880;DHT22;9572;52.378;13.404;2023-04-06T06:41:11;6.00;99.90
18880;DHT22;9572;52.378;13.404;2023-04-06T06:43:38;6.10;99.90
18880;DHT22;9572;52.378;13.404;2023-04-06T06:46:05;6.20;99.90
18880;DHT22;9572;52.378;13.404;2023-04-06T06:48:32;6.30;99.90
18880;DHT22;9572;52.378;13.404;2023-04-06T06:51:01;6.40;99.90
18880;DHT22;9572;52.378;13.404;2023-04-06T06:53:28;6.40;99.90
18880;DHT22;9572;52.378;13.404;2023-04-06T06:55:55;6.40;99.90
18880;DHT22;9572;52.378;13.404;2023-04-06T06:58:22;6.50;99.90
18880;DHT22;9572;52.378;13.404;2023-04-06T07:00:49;6.50;99.90
18880;DHT22;9572;52.378;13.404;2023-04-06T07:03:16;6.40;99.90
18880;DHT22;9572;52.378;13.404;2023-04-06T07:05:45;6.30;99.90
18880;DHT22;9572;52.378;13.404;2023-04-06T07:08:19;6.30;99.90
18880;DHT22;9572;52.378;13.404;2023-04-06T07:10:46;6.20;99.90
18880;DHT22;9572;52.378;13.404;2023-04-06T07:13:14;6.10;99.90
18880;DHT22;9572;52.378;13.404;2023-04-06T07:15:44;5.90;99.90
18880;DHT22;9572;52.378;13.404;2023-04-06T07:18:11;5.90;99.90
18880;DHT22;9572;52.378;13.404;2023-04-06T07:20:39;6.00;99.90
18880;DHT22;9572;52.378;13.404;2023-04-06T07:23:06;6.00;99.90
18880;DHT22;9572;52.378;13.404;2023-04-06T07:25:34;6.00;99.90
18880;DHT22;9572;52.378;13.404;2023-04-06T07:28:02;6.10;99.90
18880;DHT22;9572;52.378;13.404;2023-04-06T07:30:29;6.20;99.90
18880;DHT22;9572;52.378;13.404;2023-04-06T07:32:57;6.40;99.90
18880;DHT22;9572;52.378;13.404;2023-04-06T07:35:25;6.60;99.90
18880;DHT22;9572;52.378;13.404;2023-04-06T07:37:53;6.70;99.90
18880;DHT22;9572;52.378;13.404;2023-04-06T07:40:20;6.90;99.90
18880;DHT22;9572;52.378;13.404;2023-04-06T07:42:48;7.10;99.90
18880;DHT22;9572;52.378;13.404;2023-04-06T07:45:15;7.20;99.90
18880;DHT22;9572;52.378;13.404;2023-04-06T07:47:43;7.50;99.90
18880;DHT22;9572;52.378;13.404;2023-04-06T07:50:10;7.90;99.90
18880;DHT22;9572;52.378;13.404;2023-04-06T07:52:38;8.30;99.90
18880;DHT22;9572;52.378;13.404;2023-04-06T07:55:05;8.70;99.90
18880;DHT22;9572;52.378;13.404;2023-04-06T07:57:32;9.10;99.90
18880;DHT22;9572;52.378;13.404;2023-04-06T08:00:01;9.40;99.90
18880;DHT22;9572;52.378;13.404;2023-04-06T08:02:29;9.60;99.90
18880;DHT22;9572;52.378;13.404;2023-04-06T08:04:56;9.90;99.90
18880;DHT22;9572;52.378;13.404;2023-04-06T08:07:23;10.20;99.90
18880;DHT22;9572;52.378;13.404;2023-04-06T08:09:51;10.20;99.90
18880;DHT22;9572;52.378;13.404;2023-04-06T08:12:18;10.10;99.90
18880;DHT22;9572;52.378;13.404;2023-04-06T08:14:45;10.10;99.90
18880;DHT22;9572;52.378;13.404;2023-04-06T08:17:14;9.90;99.90
18880;DHT22;9572;52.378;13.404;2023-04-06T08:19:42;9.80;99.90
18880;DHT22;9572;52.378;13.404;2023-04-06T08:22:09;10.00;99.90
18880;DHT22;9572;52.378;13.404;2023-04-06T08:24:36;10.20;99.90
18880;DHT22;9572;52.378;13.404;2023-04-06T08:27:03;10.20;99.90
18880;DHT22;9572;52.378;13.404;2023-04-06T08:29:30;10.10;99.90
18880;DHT22;9572;52.378;13.404;2023-04-06T08:31:57;10.20;99.90
18880;DHT22;9572;52.378;13.404;2023-04-06T08:34:26;10.40;99.90
18880;DHT22;9572;52.378;13.404;2023-04-06T08:36:53;10.50;99.90
18880;DHT22;9572;52.378;13.404;2023-04-06T08:39:20;10.50;99.90
18880;DHT22;9572;52.378;13.404;2023-04-06T08:41:51;10.40;99.90
18880;DHT22;9572;52.378;13.404;2023-04-06T08:44:22;10.60;99.90
18880;DHT22;9572;52.378;13.404;2023-04-06T08:46:49;10.90;99.90
18880;DHT22;9572;52.378;13.404;2023-04-06T08:49:18;11.20;99.90
18880;DHT22;9572;52.378;13.404;2023-04-06T08:51:47;11.70;99.90
18880;DHT22;9572;52.378;13.404;2023-04-06T08:54:14;12.00;99.90
18880;DHT22;9572;52.378;13.404;2023-04-06T08:56:42;12.40;99.90
18880;DHT22;9572;52.378;13.404;2023-04-06T08:59:10;12.70;99.90
18880;DHT22;9572;52.378;13.404;2023-04-06T09:01:40;13.20;99.90
18880;DHT22;9572;52.378;13.404;2023-04-06T09:04:08;13.70;99.90
18880;DHT22;9572;52.378;13.404;2023-04-06T09:06:38;13.90;99.90
18880;DHT22;9572;52.378;13.404;2023-04-06T09:12:35;14.00;99.90
18880;DHT22;9572;52.378;13.404;2023-04-06T09:15:02;14.20;99.90
18880;DHT22;9572;52.378;13.404;2023-04-06T09:17:31;14.00;99.90
18880;DHT22;9572;52.378;13.404;2023-04-06T09:20:13;13.70;99.90
18880;DHT22;9572;52.378;13.404;2023-04-06T09:22:55;13.30;99.90
18880;DHT22;9572;52.378;13.404;2023-04-06T09:25:23;12.70;99.90
18880;DHT22;9572;52.378;13.404;2023-04-06T09:28:03;12.00;99.90
18880;DHT22;9572;52.378;13.404;2023-04-06T09:30:48;11.60;99.90
18880;DHT22;9572;52.378;13.404;2023-04-06T09:33:22;11.40;99.90
18880;DHT22;9572;52.378;13.404;2023-04-06T09:35:49;10.80;99.90
18880;DHT22;9572;52.378;13.404;2023-04-06T09:38:17;10.60;99.90
18880;DHT22;9572;52.378;13.404;2023-04-06T09:40:50;10.90;99.90
18880;DHT22;9572;52.378;13.404;2023-04-06T09:43:30;11.50;99.90
18880;DHT22;9572;52.378;13.404;2023-04-06T09:46:21;12.30;99.90
18880;DHT22;9572;52.378;13.404;2023-04-06T09:48:49;12.80;99.90
18880;DHT22;9572;52.378;13.404;2023-04-06T09:51:18;13.40;99.90
18880;DHT22;9572;52.378;13.404;2023-04-06T09:53:49;13.90;99.90
18880;DHT22;9572;52.378;13.404;2023-04-06T09:56:23;14.20;99.90
18880;DHT22;9572;52.378;13.404;2023-04-06T09:59:28;14.50;99.90
18880;DHT22;9572;52.378;13.404;2023-04-06T10:02:06;15.10;99.90
18880;DHT22;9572;52.378;13.404;2023-04-06T10:08:35;15.80;99.90
18880;DHT22;9572;52.378;13.404;2023-04-06T10:15:10;15.90;98.90
18880;DHT22;9572;52.378;13.404;2023-04-06T10:17:37;16.00;98.90
18880;DHT22;9572;52.378;13.404;2023-04-06T10:20:17;15.20;98.30
18880;DHT22;9572;52.378;13.404;2023-04-06T10:23:08;14.70;99.20
18880;DHT22;9572;52.378;13.404;2023-04-06T10:25:37;15.00;98.80
18880;DHT22;9572;52.378;13.404;2023-04-06T10:28:11;15.30;97.80
18880;DHT22;9572;52.378;13.404;2023-04-06T10:30:45;15.90;96.90
18880;DHT22;9572;52.378;13.404;2023-04-06T10:33:20;15.90;97.00
18880;DHT22;9572;52.378;13.404;2023-04-06T10:35:54;15.30;97.70
18880;DHT22;9572;52.378;13.404;2023-04-06T10:38:53;14.50;97.90
18880;DHT22;9572;52.378;13.404;2023-04-06T10:41:42;14.40;98.40
18880;DHT22;9572;52.378;13.404;2023-04-06T10:44:20;14.70;97.50
18880;DHT22;9572;52.378;13.404;2023-04-06T10:46:57;14.50;95.70
18880;DHT22;9572;52.378;13.404;2023-04-06T10:49:26;14.50;97.10
18880;DHT22;9572;52.378;13.404;2023-04-06T10:51:55;14.00;96.60
18880;DHT22;9572;52.378;13.404;2023-04-06T10:54:25;13.40;96.00
18880;DHT22;9572;52.378;13.404;2023-04-06T10:56:53;13.00;96.00
18880;DHT22;9572;52.378;13.404;2023-04-06T10:59:23;12.50;96.90
18880;DHT22;9572;52.378;13.404;2023-04-06T11:01:53;12.30;97.10
18880;DHT22;9572;52.378;13.404;2023-04-06T11:04:28;12.60;99.80
18880;DHT22;9572;52.378;13.404;2023-04-06T11:06:56;13.20;96.70
18880;DHT22;9572;52.378;13.404;2023-04-06T11:09:24;13.50;96.50
18880;DHT22;9572;52.378;13.404;2023-04-06T11:11:54;13.90;97.30
18880;DHT22;9572;52.378;13.404;2023-04-06T11:14:23;14.80;96.30
18880;DHT22;9572;52.378;13.404;2023-04-06T11:16:53;15.50;96.30
18880;DHT22;9572;52.378;13.404;2023-04-06T11:19:28;16.10;93.90
18880;DHT22;9572;52.378;13.404;2023-04-06T11:21:56;16.60;92.90
18880;DHT22;9572;52.378;13.404;2023-04-06T11:24:33;16.70;91.30
18880;DHT22;9572;52.378;13.404;2023-04-06T11:27:03;16.90;92.90
18880;DHT22;9572;52.378;13.404;2023-04-06T11:29:34;16.90;91.80
18880;DHT22;9572;52.378;13.404;2023-04-06T11:32:06;17.00;90.20
18880;DHT22;9572;52.378;13.404;2023-04-06T11:34:39;17.20;86.80
18880;DHT22;9572;52.378;13.404;2023-04-06T11:37:08;17.10;87.50
18880;DHT22;9572;52.378;13.404;2023-04-06T11:39:38;17.00;90.30
18880;DHT22;9572;52.378;13.404;2023-04-06T11:42:06;16.90;88.80
18880;DHT22;9572;52.378;13.404;2023-04-06T11:44:35;16.90;88.00
18880;DHT22;9572;52.378;13.404;2023-04-06T11:47:07;17.10;87.00
18880;DHT22;9572;52.378;13.404;2023-04-06T11:49:40;17.00;86.30
18880;DHT22;9572;52.378;13.404;2023-04-06T11:52:15;17.10;85.90
18880;DHT22;9572;52.378;13.404;2023-04-06T11:54:43;17.20;83.70
18880;DHT22;9572;52.378;13.404;2023-04-06T11:57:14;17.40;82.60
18880;DHT22;9572;52.378;13.404;2023-04-06T11:59:44;17.60;82.00
18880;DHT22;9572;52.378;13.404;2023-04-06T12:02:13;18.00;79.40
18880;DHT22;9572;52.378;13.404;2023-04-06T12:04:47;17.50;80.80
18880;DHT22;9572;52.378;13.404;2023-04-06T12:07:14;16.70;83.00
18880;DHT22;9572;52.378;13.404;2023-04-06T12:09:43;16.60;83.20
18880;DHT22;9572;52.378;13.404;2023-04-06T12:12:13;16.90;85.40
18880;DHT22;9572;52.378;13.404;2023-04-06T12:14:44;16.90;83.40
18880;DHT22;9572;52.378;13.404;2023-04-06T12:17:13;16.80;82.00
18880;DHT22;9572;52.378;13.404;2023-04-06T12:19:41;16.70;79.90
18880;DHT22;9572;52.378;13.404;2023-04-06T12:22:09;16.60;82.30
18880;DHT22;9572;52.378;13.404;2023-04-06T12:24:36;16.40;82.70
18880;DHT22;9572;52.378;13.404;2023-04-06T12:27:03;16.30;81.30
18880;DHT22;9572;52.378;13.404;2023-04-06T12:29:34;16.30;84.60
18880;DHT22;9572;52.378;13.404;2023-04-06T12:32:03;16.40;80.80
18880;DHT22;9572;52.378;13.404;2023-04-06T12:34:34;16.20;81.90
18880;DHT22;9572;52.378;13.404;2023-04-06T12:37:03;16.30;81.60
18880;DHT22;9572;52.378;13.404;2023-04-06T12:39:39;16.30;84.70
18880;DHT22;9572;52.378;13.404;2023-04-06T12:42:06;16.30;80.70
18880;DHT22;9572;52.378;13.404;2023-04-06T12:44:34;16.00;82.90
18880;DHT22;9572;52.378;13.404;2023-04-06T12:47:03;15.20;81.20
18880;DHT22;9572;52.378;13.404;2023-04-06T12:49:33;14.60;82.80
18880;DHT22;9572;52.378;13.404;2023-04-06T12:52:02;14.20;86.90
18880;DHT22;9572;52.378;13.404;2023-04-06T12:54:29;13.70;86.20
18880;DHT22;9572;52.378;13.404;2023-04-06T12:56:58;13.90;87.90
18880;DHT22;9572;52.378;13.404;2023-04-06T12:59:26;14.30;86.10
18880;DHT22;9572;52.378;13.404;2023-04-06T13:02:00;14.70;85.00
18880;DHT22;9572;52.378;13.404;2023-04-06T13:04:27;15.00;85.90
18880;DHT22;9572;52.378;13.404;2023-04-06T13:06:54;15.40;84.90
18880;DHT22;9572;52.378;13.404;2023-04-06T13:09:21;15.30;83.90
18880;DHT22;9572;52.378;13.404;2023-04-06T13:11:48;15.30;83.60
18880;DHT22;9572;52.378;13.404;2023-04-06T13:14:16;15.30;84.00
18880;DHT22;9572;52.378;13.404;2023-04-06T13:16:43;15.50;86.10
18880;DHT22;9572;52.378;13.404;2023-04-06T13:19:10;15.70;84.90
18880;DHT22;9572;52.378;13.404;2023-04-06T13:21:38;15.90;86.70
18880;DHT22;9572;52.378;13.404;2023-04-06T13:24:06;15.50;84.90
18880;DHT22;9572;52.378;13.404;2023-04-06T13:26:33;15.10;85.10
18880;DHT22;9572;52.378;13.404;2023-04-06T13:29:00;14.70;86.10
18880;DHT22;9572;52.378;13.404;2023-04-06T13:31:29;14.40;85.20
18880;DHT22;9572;52.378;13.404;2023-04-06T13:33:57;14.30;89.20
18880;DHT22;9572;52.378;13.404;2023-04-06T13:36:24;14.30;90.10
18880;DHT22;9572;52.378;13.404;2023-04-06T13:38:52;14.40;90.10
18880;DHT22;9572;52.378;13.404;2023-04-06T13:41:21;14.30;89.70
18880;DHT22;9572;52.378;13.404;2023-04-06T13:43:48;14.30;89.60
18880;DHT22;9572;52.378;13.404;2023-04-06T13:46:15;14.20;87.90
18880;DHT22;9572;52.378;13.404;2023-04-06T13:48:44;14.10;90.10
18880;DHT22;9572;52.378;13.404;2023-04-06T13:51:13;14.10;90.00
18880;DHT22;9572;52.378;13.404;2023-04-06T13:53:40;14.00;90.50
18880;DHT22;9572;52.378;13.404;2023-04-06T13:56:07;13.70;89.60
18880;DHT22;9572;52.378;13.404;2023-04-06T13:58:35;13.40;89.60
18880;DHT22;9572;52.378;13.404;2023-04-06T14:01:03;13.00;90.10
18880;DHT22;9572;52.378;13.404;2023-04-06T14:03:30;13.00;91.00
18880;DHT22;9572;52.378;13.404;2023-04-06T14:05:59;13.00;91.60
18880;DHT22;9572;52.378;13.404;2023-04-06T14:08:26;13.10;91.20
18880;DHT22;9572;52.378;13.404;2023-04-06T14:10:53;13.20;90.80
18880;DHT22;9572;52.378;13.404;2023-04-06T14:13:20;13.60;91.40
18880;DHT22;9572;52.378;13.404;2023-04-06T14:15:53;13.60;90.30
18880;DHT22;9572;52.378;13.404;2023-04-06T14:18:19;13.70;90.80
18880;DHT22;9572;52.378;13.404;2023-04-06T14:20:53;13.90;90.60
18880;DHT22;9572;52.378;13.404;2023-04-06T14:23:21;14.00;90.20
18880;DHT22;9572;52.378;13.404;2023-04-06T14:25:48;14.10;90.30
18880;DHT22;9572;52.378;13.404;2023-04-06T14:28:15;14.00;89.50
18880;DHT22;9572;52.378;13.404;2023-04-06T14:30:43;14.10;89.20
18880;DHT22;9572;52.378;13.404;2023-04-06T14:33:09;14.10;88.40
18880;DHT22;9572;52.378;13.404;2023-04-06T14:35:38;14.20;88.40
18880;DHT22;9572;52.378;13.404;2023-04-06T14:38:05;14.20;89.20
18880;DHT22;9572;52.378;13.404;2023-04-06T14:40:35;14.00;87.50
18880;DHT22;9572;52.378;13.404;2023-04-06T14:43:03;13.90;87.40
18880;DHT22;9572;52.378;13.404;2023-04-06T14:45:33;14.00;89.40
18880;DHT22;9572;52.378;13.404;2023-04-06T14:48:00;13.80;88.00
18880;DHT22;9572;52.378;13.404;2023-04-06T14:50:27;13.60;89.60
18880;DHT22;9572;52.378;13.404;2023-04-06T14:52:54;13.60;90.10
18880;DHT22;9572;52.378;13.404;2023-04-06T14:55:21;13.60;90.30
18880;DHT22;9572;52.378;13.404;2023-04-06T14:57:49;13.90;90.30
18880;DHT22;9572;52.378;13.404;2023-04-06T15:00:17;13.70;88.50
18880;DHT22;9572;52.378;13.404;2023-04-06T15:02:44;13.60;89.30
18880;DHT22;9572;52.378;13.404;2023-04-06T15:05:11;13.40;89.90
18880;DHT22;9572;52.378;13.404;2023-04-06T15:07:37;13.10;89.90
18880;DHT22;9572;52.378;13.404;2023-04-06T15:10:06;13.20;89.30
18880;DHT22;9572;52.378;13.404;2023-04-06T15:12:34;13.00;90.00
18880;DHT22;9572;52.378;13.404;2023-04-06T15:15:04;12.80;89.80
18880;DHT22;9572;52.378;13.404;2023-04-06T15:17:31;12.60;90.20
18880;DHT22;9572;52.378;13.404;2023-04-06T15:19:57;12.50;91.00
18880;DHT22;9572;52.378;13.404;2023-04-06T15:22:24;12.40;91.80
18880;DHT22;9572;52.378;13.404;2023-04-06T15:24:51;12.40;91.60
18880;DHT22;9572;52.378;13.404;2023-04-06T15:27:18;12.30;91.10
18880;DHT22;9572;52.378;13.404;2023-04-06T15:29:46;12.30;91.60
18880;DHT22;9572;52.378;13.404;2023-04-06T15:32:14;12.20;91.10
18880;DHT22;9572;52.378;13.404;2023-04-06T15:34:41;12.40;91.60
18880;DHT22;9572;52.378;13.404;2023-04-06T15:37:08;12.60;91.10
18880;DHT22;9572;52.378;13.404;2023-04-06T15:39:35;12.40;91.20
18880;DHT22;9572;52.378;13.404;2023-04-06T15:42:03;12.20;91.20
18880;DHT22;9572;52.378;13.404;2023-04-06T15:44:30;12.10;91.40
18880;DHT22;9572;52.378;13.404;2023-04-06T15:46:57;12.00;91.90
18880;DHT22;9572;52.378;13.404;2023-04-06T15:49:26;12.00;92.00
18880;DHT22;9572;52.378;13.404;2023-04-06T15:51:53;11.90;91.90
18880;DHT22;9572;52.378;13.404;2023-04-06T15:54:20;11.80;91.30
18880;DHT22;9572;52.378;13.404;2023-04-06T15:56:47;11.90;91.20
18880;DHT22;9572;52.378;13.404;2023-04-06T15:59:15;11.90;91.70